Terminal Aerodrome Forecast
Issued by NWS Wilmington, OH

Current Version | Previous Version | Graphics & Text | Print | Product List | Glossary On
Versions: 1 2 3 4 5 6 7 8 9 10 11 12 13 14 15 16 17 18 19 20 21 22 23 24 25 26 27
993
FTUS41 KILN 101128
TAFCVG
TAF
KCVG 101128Z 1012/1118 27012G18KT 4SM -SHSN OVC035
      TEMPO 1012/1016 1SM -SHSN OVC025
     FM101700 28014G20KT P6SM OVC035
     FM110000 28008KT P6SM BKN035
     FM110900 29006KT P6SM SCT035=

USA.gov is the U.S. government's official web portal to all federal, state and local government web resources and services.